createdAt,value
2019-01-03T00:03:49.221Z,7.37
2019-01-03T00:08:02.850Z,8.23
2019-01-03T00:12:16.346Z,7.97
2019-01-03T00:16:28.979Z,9.27
2019-01-03T00:20:44.530Z,8.18
2019-01-03T00:24:57.248Z,7.23
2019-01-03T00:29:12.851Z,8.53
2019-01-03T00:33:25.485Z,8.57
2019-01-03T00:37:39.144Z,7.07
2019-01-03T00:41:53.588Z,7.73
2019-01-03T00:46:23.310Z,7.50
2019-01-03T00:52:39.538Z,8.40
2019-01-03T00:56:52.228Z,8.20
2019-01-03T01:01:04.899Z,6.63
2019-01-03T01:05:19.417Z,7.45
2019-01-03T01:09:33.165Z,7.30
2019-01-03T01:14:03.827Z,5.87
2019-01-03T01:18:20.218Z,6.33
2019-01-03T01:24:39.697Z,6.17
2019-01-03T01:28:54.117Z,6.13
2019-01-03T01:33:07.836Z,8.00
2019-01-03T01:37:25.557Z,6.43
2019-01-03T01:41:44.934Z,7.83
2019-01-03T01:48:05.212Z,5.72
2019-01-03T01:52:24.813Z,6.50
2019-01-03T01:56:38.446Z,6.83
2019-01-03T02:00:52.846Z,7.03
2019-01-03T02:05:06.427Z,5.93
2019-01-03T02:09:24.877Z,5.50
2019-01-03T02:13:46.434Z,6.30
2019-01-03T02:20:01.762Z,6.00
2019-01-03T02:24:15.467Z,6.27
2019-01-03T02:28:30.118Z,7.10
2019-01-03T02:32:43.964Z,5.67
2019-01-03T02:36:57.424Z,6.60
2019-01-03T02:41:13.888Z,6.70
2019-01-03T02:45:58.766Z,7.73
2019-01-03T02:50:13.188Z,6.03
2019-01-03T02:54:26.852Z,6.67
2019-01-03T02:58:40.622Z,5.80
2019-01-03T03:03:04.177Z,5.60
2019-01-03T03:07:20.851Z,5.80
2019-01-03T03:12:40.836Z,5.50
2019-01-03T03:17:00.268Z,5.10
2019-01-03T03:21:43.885Z,6.50
2019-01-03T03:27:59.818Z,6.07
2019-01-03T03:32:13.615Z,5.47
2019-01-03T03:36:27.283Z,5.40
2019-01-03T03:40:40.012Z,5.30
2019-01-03T03:45:04.598Z,4.90
2019-01-03T03:49:18.455Z,5.87
2019-01-03T03:54:34.430Z,4.40
2019-01-03T03:58:48.107Z,4.40
2019-01-03T04:03:01.885Z,4.33
2019-01-03T04:07:17.281Z,5.43
2019-01-03T04:11:30.790Z,4.93
2019-01-03T04:15:48.262Z,4.53
2019-01-03T04:20:02.921Z,4.70
2019-01-03T04:24:19.396Z,4.90
2019-01-03T04:28:37.948Z,4.60
2019-01-03T04:32:51.554Z,4.80
2019-01-03T04:37:09.148Z,5.60
2019-01-03T04:41:23.599Z,4.43
2019-01-03T04:45:37.142Z,5.10
2019-01-03T04:49:50.836Z,4.53
2019-01-03T04:54:04.369Z,4.13
2019-01-03T04:58:21.881Z,4.67
2019-01-03T05:03:33.266Z,5.00
2019-01-03T05:07:46.921Z,4.40
2019-01-03T05:12:04.375Z,6.90
2019-01-03T05:16:18.117Z,4.57
2019-01-03T05:20:36.591Z,5.23
2019-01-03T05:24:49.254Z,4.73
2019-01-03T05:29:29.022Z,4.90
2019-01-03T05:33:47.687Z,3.67
2019-01-03T05:38:11.271Z,4.20
2019-01-03T05:42:27.940Z,4.70
2019-01-03T05:46:41.634Z,3.80
2019-01-03T05:50:55.519Z,3.90
2019-01-03T05:55:09.217Z,3.80
2019-01-03T06:01:27.640Z,4.73
2019-01-03T06:05:51.222Z,4.03
2019-01-03T06:11:05.391Z,4.57
2019-01-03T06:16:17.496Z,4.17
2019-01-03T06:20:33.106Z,4.07
2019-01-03T06:24:46.759Z,5.00
2019-01-03T06:29:00.397Z,4.27
2019-01-03T06:35:18.571Z,5.10
2019-01-03T06:39:32.139Z,4.13
2019-01-03T06:43:49.747Z,4.50
2019-01-03T06:48:03.320Z,3.90
2019-01-03T06:54:19.783Z,4.00
2019-01-03T06:58:36.203Z,4.60
2019-01-03T07:02:53.742Z,4.50
2019-01-03T07:07:12.234Z,4.30
2019-01-03T07:11:34.769Z,4.93
2019-01-03T07:15:48.452Z,4.40
2019-01-03T07:20:02.103Z,4.23
2019-01-03T07:25:18.155Z,4.37
2019-01-03T07:29:42.026Z,4.40
2019-01-03T07:33:54.517Z,4.10
2019-01-03T07:40:10.289Z,4.70
2019-01-03T07:44:23.819Z,5.47
2019-01-03T07:48:37.382Z,4.50
2019-01-03T07:53:54.295Z,4.57
2019-01-03T07:58:07.922Z,4.80
2019-01-03T08:02:21.469Z,4.60
2019-01-03T08:06:37.009Z,5.20
2019-01-03T08:10:50.634Z,4.13
2019-01-03T08:17:10.706Z,5.93
2019-01-03T08:21:24.072Z,4.37
2019-01-03T08:25:37.669Z,4.00
2019-01-03T08:30:49.812Z,4.37
2019-01-03T08:35:10.341Z,3.73
2019-01-03T08:39:23.945Z,3.80
2019-01-03T08:43:37.533Z,4.67
2019-01-03T08:47:51.855Z,3.67
2019-01-03T08:52:05.421Z,3.63
2019-01-03T08:56:19.060Z,4.23
2019-01-03T09:00:31.579Z,3.57
2019-01-03T09:05:19.151Z,3.30
2019-01-03T09:09:40.632Z,4.60
2019-01-03T09:13:53.134Z,3.83
2019-01-03T09:18:09.608Z,3.83
2019-01-03T09:22:20.224Z,3.60
2019-01-03T09:26:36.774Z,3.30
2019-01-03T09:30:50.306Z,3.60
2019-01-03T09:35:07.674Z,3.73
2019-01-03T09:39:22.050Z,3.30
2019-01-03T09:43:36.556Z,3.63
2019-01-03T09:47:44.886Z,4.77
2019-01-03T09:51:53.179Z,3.13
2019-01-03T09:56:01.462Z,2.93
2019-01-03T10:00:09.706Z,3.10
2019-01-03T10:04:17.985Z,3.50
2019-01-03T10:08:26.247Z,3.50
2019-01-03T10:12:34.518Z,3.10
2019-01-03T10:16:42.777Z,3.30
2019-01-03T10:20:51.123Z,3.77
2019-01-03T10:25:00.860Z,2.90
2019-01-03T10:29:09.157Z,3.70
2019-01-03T10:33:17.396Z,3.77
2019-01-03T10:37:25.686Z,3.70
2019-01-03T10:41:33.956Z,3.97
2019-01-03T10:45:42.203Z,3.90
2019-01-03T10:49:50.481Z,2.90
2019-01-03T10:53:58.717Z,3.97
2019-01-03T10:58:07.002Z,3.00
2019-01-03T11:02:15.233Z,3.23
2019-01-03T11:06:23.554Z,2.83
2019-01-03T11:10:31.886Z,4.30
2019-01-03T11:14:40.141Z,4.50
2019-01-03T11:18:48.386Z,4.13
2019-01-03T11:22:56.666Z,4.27
2019-01-03T11:27:04.904Z,3.37
2019-01-03T11:31:13.216Z,3.33
2019-01-03T11:35:21.496Z,3.27
2019-01-03T11:39:29.785Z,3.40
2019-01-03T11:43:38.020Z,2.73
2019-01-03T11:47:46.297Z,3.00
2019-01-03T11:51:54.626Z,2.70
2019-01-03T11:56:02.911Z,2.70
2019-01-03T12:00:11.222Z,3.70
2019-01-03T12:04:19.484Z,2.67
2019-01-03T12:08:27.783Z,3.07
2019-01-03T12:12:36.061Z,5.63
2019-01-03T12:16:44.289Z,2.90
2019-01-03T12:20:52.569Z,3.40
2019-01-03T12:25:00.939Z,2.97
2019-01-03T12:29:09.233Z,3.03
2019-01-03T12:33:17.477Z,4.00
2019-01-03T12:37:25.779Z,2.93
2019-01-03T12:41:34.025Z,2.95
2019-01-03T12:45:42.244Z,3.30
2019-01-03T12:49:50.518Z,2.90
2019-01-03T12:53:58.766Z,3.50
2019-01-03T12:58:07.054Z,3.00
2019-01-03T13:02:15.324Z,2.93
2019-01-03T13:06:23.589Z,3.20
2019-01-03T13:10:31.810Z,2.93
2019-01-03T13:14:40.078Z,2.90
2019-01-03T13:18:48.331Z,3.07
2019-01-03T13:22:56.584Z,3.47
2019-01-03T13:27:04.836Z,2.50
2019-01-03T13:31:13.082Z,3.40
2019-01-03T13:35:21.361Z,2.97
2019-01-03T13:39:29.628Z,3.23
2019-01-03T13:43:37.869Z,2.93
2019-01-03T13:47:46.105Z,2.80
2019-01-03T13:51:54.401Z,3.47
2019-01-03T13:56:02.727Z,2.77
2019-01-03T14:00:11.230Z,3.13
2019-01-03T14:04:19.481Z,3.03
2019-01-03T14:08:27.793Z,2.80
2019-01-03T14:12:36.052Z,2.60
2019-01-03T14:16:44.307Z,2.70
2019-01-03T14:20:52.589Z,2.73
2019-01-03T14:25:00.861Z,2.90
2019-01-03T14:29:09.172Z,3.10
2019-01-03T14:33:17.447Z,3.73
2019-01-03T14:37:25.785Z,2.83
2019-01-03T14:41:34.051Z,2.80
2019-01-03T14:45:42.349Z,3.80
2019-01-03T14:49:50.594Z,2.90
2019-01-03T14:53:58.829Z,3.87
2019-01-03T14:58:07.137Z,3.40
2019-01-03T15:02:15.363Z,2.80
2019-01-03T15:06:23.411Z,3.63
2019-01-03T15:10:31.657Z,3.13
2019-01-03T15:14:39.944Z,2.40
2019-01-03T15:18:48.252Z,3.00
2019-01-03T15:22:56.470Z,2.90
2019-01-03T15:27:04.756Z,2.33
2019-01-03T15:31:13.027Z,2.97
2019-01-03T15:35:21.335Z,2.90
2019-01-03T15:39:29.571Z,3.00
2019-01-03T15:43:37.909Z,2.70
2019-01-03T15:47:46.170Z,3.43
2019-01-03T15:51:54.405Z,3.20
2019-01-03T15:56:02.654Z,3.53
2019-01-03T16:00:11.148Z,2.87
2019-01-03T16:04:19.402Z,2.90
2019-01-03T16:08:27.673Z,2.67
2019-01-03T16:12:35.954Z,3.30
2019-01-03T16:16:44.234Z,2.87
2019-01-03T16:20:52.523Z,3.20
2019-01-03T16:25:03.752Z,3.53
2019-01-03T16:29:12.591Z,2.80
2019-01-03T16:33:20.896Z,3.17
2019-01-03T16:37:29.232Z,3.53
2019-01-03T16:41:37.478Z,2.70
2019-01-03T16:45:45.837Z,2.97
2019-01-03T16:49:54.097Z,2.90
2019-01-03T16:54:02.353Z,3.37
2019-01-03T16:58:10.668Z,3.10
2019-01-03T17:02:19.034Z,4.50
2019-01-03T17:06:27.322Z,4.20
2019-01-03T17:10:35.558Z,4.57
2019-01-03T17:14:43.856Z,3.63
2019-01-03T17:18:52.098Z,3.30
2019-01-03T17:23:00.376Z,3.90
2019-01-03T17:27:08.692Z,3.80
2019-01-03T17:31:17.036Z,3.70
2019-01-03T17:35:25.315Z,4.10
2019-01-03T17:39:33.570Z,5.80
2019-01-03T17:43:41.833Z,5.20
2019-01-03T17:47:50.076Z,6.23
2019-01-03T17:51:58.364Z,3.90
2019-01-03T17:56:06.630Z,4.17
2019-01-03T18:00:18.050Z,4.57
2019-01-03T18:04:26.335Z,4.12
2019-01-03T18:08:34.598Z,4.77
2019-01-03T18:12:42.882Z,4.67
2019-01-03T18:16:51.154Z,4.67
2019-01-03T18:20:59.442Z,4.30
2019-01-03T18:25:07.728Z,5.13
2019-01-03T18:29:15.965Z,4.97
2019-01-03T18:33:24.257Z,4.60
2019-01-03T18:37:32.495Z,5.47
2019-01-03T18:41:44.947Z,4.17
2019-01-03T18:45:53.217Z,4.37
2019-01-03T18:50:01.461Z,4.93
2019-01-03T18:54:09.766Z,4.23
2019-01-03T18:58:19.325Z,4.40
2019-01-03T19:02:27.605Z,4.23
2019-01-03T19:06:35.893Z,4.23
2019-01-03T19:10:44.202Z,3.90
2019-01-03T19:14:52.508Z,4.47
2019-01-03T19:19:00.802Z,4.20
2019-01-03T19:23:09.037Z,3.57
2019-01-03T19:27:17.323Z,4.03
2019-01-03T19:31:25.594Z,3.60
2019-01-03T19:35:33.863Z,4.13
2019-01-03T19:39:42.121Z,3.90
2019-01-03T19:43:50.377Z,3.23
2019-01-03T19:47:58.657Z,3.50
2019-01-03T19:52:06.918Z,2.87
2019-01-03T19:56:15.197Z,3.77
2019-01-03T20:00:23.466Z,3.80
2019-01-03T20:04:31.745Z,3.80
2019-01-03T20:08:39.955Z,4.20
2019-01-03T20:12:48.304Z,4.47
2019-01-03T20:16:56.687Z,4.10
2019-01-03T20:21:04.943Z,4.70
2019-01-03T20:25:13.233Z,4.80
2019-01-03T20:29:21.496Z,4.53
2019-01-03T20:33:29.843Z,4.40
2019-01-03T20:37:38.141Z,4.10
2019-01-03T20:41:46.506Z,4.60
2019-01-03T20:45:54.806Z,4.00
2019-01-03T20:50:03.077Z,4.47
2019-01-03T20:54:11.881Z,4.05
2019-01-03T20:58:20.189Z,4.40
2019-01-03T21:02:28.413Z,4.03
2019-01-03T21:06:36.790Z,4.80
2019-01-03T21:10:45.089Z,4.40
2019-01-03T21:14:53.460Z,3.87
2019-01-03T21:19:01.737Z,4.37
2019-01-03T21:23:10.035Z,3.50
2019-01-03T21:27:18.285Z,4.70
2019-01-03T21:31:26.566Z,5.07
2019-01-03T21:35:34.865Z,4.60
2019-01-03T21:39:43.125Z,4.77
2019-01-03T21:43:51.453Z,4.97
2019-01-03T21:47:59.726Z,4.87
2019-01-03T21:52:07.948Z,4.67
2019-01-03T21:56:16.246Z,4.90
2019-01-03T22:00:24.501Z,5.20
2019-01-03T22:04:32.764Z,5.23
2019-01-03T22:08:41.049Z,5.27
2019-01-03T22:12:49.325Z,6.13
2019-01-03T22:16:57.617Z,5.28
2019-01-03T22:21:05.922Z,5.40
2019-01-03T22:25:14.199Z,4.97
2019-01-03T22:29:22.503Z,4.87
2019-01-03T22:33:30.802Z,5.00
2019-01-03T22:37:39.078Z,4.90
2019-01-03T22:41:47.332Z,5.30
2019-01-03T22:45:55.646Z,4.90
2019-01-03T22:50:03.981Z,5.17
2019-01-03T22:54:12.211Z,5.50
2019-01-03T22:58:20.486Z,5.70
2019-01-03T23:02:28.762Z,5.87
2019-01-03T23:06:37.073Z,5.73
2019-01-03T23:10:45.298Z,5.97
2019-01-03T23:14:53.575Z,5.63
2019-01-03T23:19:01.859Z,6.50
2019-01-03T23:23:10.168Z,5.50
2019-01-03T23:27:18.500Z,6.40
2019-01-03T23:31:26.738Z,5.77
2019-01-03T23:35:34.998Z,6.37
2019-01-03T23:39:43.250Z,6.03
2019-01-03T23:43:51.541Z,7.17
2019-01-03T23:48:00.995Z,6.90
2019-01-03T23:52:09.257Z,6.67
2019-01-03T23:56:17.505Z,5.73
